Adco, Washington
Current Conditions -  °F | °C
As of 5:53 AM on Friday 31 Oct 2014 (Local Time) from KEPH Reporting Station
Light Rain Light Rain  
Wind Chill: 10°   Ceiling: 8000
Heat Index: 10°   Visibility: 6mi
Dew Point:   Wind: 0mph
Humidity: 93%   Direction: NA
Pressure: 29.71"   Gusts: NA
Location:  47.4314°N, 119.485°W
Report Text: KEPH 311253Z AUTO 00000KT 6SM -RA BR OVC080 10/09 A2971 RMK AO2 RAB1157 SLP063 P0000 T01000089
Loading
Personal Weather Stations






























Interactive Weather Map
Tropical Storm Tracking
New forecast layout! Learn more

10-Day Weather Forecast

Advertisements
Track Severe Weather on mobile